sensor_id;sensor_type;location;lat;lon;timestamp;pressure;altitude;pressure_sealevel;temperature;humidity
67015;BME280;1033;52.560;13.374;2022-07-29T00:01:42;101424.09;;;15.17;64.46
67015;BME280;1033;52.560;13.374;2022-07-29T00:04:11;101421.00;;;15.14;64.79
67015;BME280;1033;52.560;13.374;2022-07-29T00:06:41;101428.25;;;15.27;64.51
67015;BME280;1033;52.560;13.374;2022-07-29T00:09:10;101424.47;;;15.28;64.67
67015;BME280;1033;52.560;13.374;2022-07-29T00:11:39;101422.59;;;15.21;64.83
67015;BME280;1033;52.560;13.374;2022-07-29T00:14:10;101423.91;;;15.19;64.98
67015;BME280;1033;52.560;13.374;2022-07-29T00:16:41;101426.69;;;15.06;65.56
67015;BME280;1033;52.560;13.374;2022-07-29T00:19:10;101426.84;;;15.17;65.37
67015;BME280;1033;52.560;13.374;2022-07-29T00:21:39;101430.88;;;15.08;65.58
67015;BME280;1033;52.560;13.374;2022-07-29T00:24:08;101425.59;;;15.13;65.62
67015;BME280;1033;52.560;13.374;2022-07-29T00:26:37;101420.56;;;15.10;65.93
67015;BME280;1033;52.560;13.374;2022-07-29T00:29:06;101419.34;;;15.06;65.90
67015;BME280;1033;52.560;13.374;2022-07-29T00:31:56;101416.03;;;15.04;65.93
67015;BME280;1033;52.560;13.374;2022-07-29T00:34:25;101414.53;;;15.08;65.96
67015;BME280;1033;52.560;13.374;2022-07-29T00:37:12;101409.94;;;15.02;66.20
67015;BME280;1033;52.560;13.374;2022-07-29T00:39:40;101409.09;;;15.02;66.36
67015;BME280;1033;52.560;13.374;2022-07-29T00:42:09;101403.47;;;14.97;66.50
67015;BME280;1033;52.560;13.374;2022-07-29T00:44:39;101399.50;;;14.93;66.70
67015;BME280;1033;52.560;13.374;2022-07-29T00:47:11;101398.31;;;14.82;67.14
67015;BME280;1033;52.560;13.374;2022-07-29T00:49:41;101401.31;;;14.74;67.60
67015;BME280;1033;52.560;13.374;2022-07-29T00:52:11;101410.56;;;14.66;67.91
67015;BME280;1033;52.560;13.374;2022-07-29T00:54:43;101399.66;;;14.66;67.88
67015;BME280;1033;52.560;13.374;2022-07-29T00:57:12;101405.69;;;14.75;67.77
67015;BME280;1033;52.560;13.374;2022-07-29T00:59:41;101397.94;;;14.72;67.97
67015;BME280;1033;52.560;13.374;2022-07-29T01:02:12;101390.22;;;14.69;68.10
67015;BME280;1033;52.560;13.374;2022-07-29T01:04:41;101394.16;;;14.73;67.92
67015;BME280;1033;52.560;13.374;2022-07-29T01:07:11;101394.69;;;14.57;68.77
67015;BME280;1033;52.560;13.374;2022-07-29T01:09:41;101397.59;;;14.62;68.45
67015;BME280;1033;52.560;13.374;2022-07-29T01:12:17;101392.81;;;14.51;68.73
67015;BME280;1033;52.560;13.374;2022-07-29T01:14:49;101392.81;;;14.51;69.15
67015;BME280;1033;52.560;13.374;2022-07-29T01:17:26;101389.47;;;14.49;69.38
67015;BME280;1033;52.560;13.374;2022-07-29T01:20:02;101387.59;;;14.43;69.45
67015;BME280;1033;52.560;13.374;2022-07-29T01:23:01;101386.34;;;14.39;69.95
67015;BME280;1033;52.560;13.374;2022-07-29T01:26:00;101380.91;;;14.39;70.17
67015;BME280;1033;52.560;13.374;2022-07-29T01:29:02;101375.25;;;14.33;70.15
67015;BME280;1033;52.560;13.374;2022-07-29T01:31:43;101365.81;;;14.43;70.06
67015;BME280;1033;52.560;13.374;2022-07-29T01:34:41;101360.81;;;14.40;70.15
67015;BME280;1033;52.560;13.374;2022-07-29T01:37:19;101362.72;;;14.26;70.93
67015;BME280;1033;52.560;13.374;2022-07-29T01:39:55;101353.72;;;14.25;70.65
67015;BME280;1033;52.560;13.374;2022-07-29T01:42:33;101355.81;;;14.23;70.77
67015;BME280;1033;52.560;13.374;2022-07-29T01:45:12;101348.06;;;14.20;71.03
67015;BME280;1033;52.560;13.374;2022-07-29T01:47:47;101322.56;;;14.15;71.19
67015;BME280;1033;52.560;13.374;2022-07-29T01:50:28;101320.88;;;14.14;71.24
67015;BME280;1033;52.560;13.374;2022-07-29T01:53:04;101315.63;;;14.19;71.21
67015;BME280;1033;52.560;13.374;2022-07-29T01:55:38;101312.75;;;14.07;71.80
67015;BME280;1033;52.560;13.374;2022-07-29T01:58:11;101312.75;;;14.07;71.75
67015;BME280;1033;52.560;13.374;2022-07-29T02:00:45;101308.16;;;14.08;71.60
67015;BME280;1033;52.560;13.374;2022-07-29T02:03:17;101299.38;;;13.99;72.06
67015;BME280;1033;52.560;13.374;2022-07-29T02:05:49;101310.25;;;13.99;72.16
67015;BME280;1033;52.560;13.374;2022-07-29T02:08:21;101300.63;;;14.03;71.95
67015;BME280;1033;52.560;13.374;2022-07-29T02:10:51;101313.16;;;14.11;71.92
67015;BME280;1033;52.560;13.374;2022-07-29T02:13:25;101309.41;;;14.05;71.98
67015;BME280;1033;52.560;13.374;2022-07-29T02:15:57;101298.13;;;14.02;72.11
67015;BME280;1033;52.560;13.374;2022-07-29T02:18:30;101309.44;;;13.92;72.57
67015;BME280;1033;52.560;13.374;2022-07-29T02:21:01;101310.91;;;13.94;72.79
67015;BME280;1033;52.560;13.374;2022-07-29T02:23:33;101308.59;;;13.98;72.21
67015;BME280;1033;52.560;13.374;2022-07-29T02:26:19;101322.22;;;13.98;72.60
67015;BME280;1033;52.560;13.374;2022-07-29T02:28:51;101322.41;;;13.90;72.75
67015;BME280;1033;52.560;13.374;2022-07-29T02:31:28;101317.41;;;13.87;72.89
67015;BME280;1033;52.560;13.374;2022-07-29T02:34:01;101323.28;;;13.84;73.09
67015;BME280;1033;52.560;13.374;2022-07-29T02:36:31;101322.63;;;13.95;72.76
67015;BME280;1033;52.560;13.374;2022-07-29T02:39:03;101320.72;;;13.96;72.78
67015;BME280;1033;52.560;13.374;2022-07-29T02:41:42;101314.50;;;13.88;73.02
67015;BME280;1033;52.560;13.374;2022-07-29T02:44:15;101320.78;;;13.89;72.75
67015;BME280;1033;52.560;13.374;2022-07-29T02:46:52;101319.06;;;13.94;72.75
67015;BME280;1033;52.560;13.374;2022-07-29T02:49:33;101316.97;;;14.03;72.38
67015;BME280;1033;52.560;13.374;2022-07-29T02:52:06;101323.19;;;14.17;72.03
67015;BME280;1033;52.560;13.374;2022-07-29T02:54:44;101328.22;;;14.13;71.92
67015;BME280;1033;52.560;13.374;2022-07-29T02:57:34;101325.25;;;14.21;71.63
67015;BME280;1033;52.560;13.374;2022-07-29T03:00:23;101319.78;;;14.28;71.27
67015;BME280;1033;52.560;13.374;2022-07-29T03:02:59;101321.06;;;14.25;71.20
67015;BME280;1033;52.560;13.374;2022-07-29T03:05:31;101313.94;;;14.24;71.28
67015;BME280;1033;52.560;13.374;2022-07-29T03:08:04;101320.41;;;14.30;71.10
67015;BME280;1033;52.560;13.374;2022-07-29T03:10:34;101315.13;;;14.35;70.95
67015;BME280;1033;52.560;13.374;2022-07-29T03:13:07;101320.16;;;14.38;70.64
67015;BME280;1033;52.560;13.374;2022-07-29T03:15:37;101313.94;;;14.38;70.67
67015;BME280;1033;52.560;13.374;2022-07-29T03:18:08;101313.91;;;14.31;71.01
67015;BME280;1033;52.560;13.374;2022-07-29T03:20:38;101315.09;;;14.48;70.41
67015;BME280;1033;52.560;13.374;2022-07-29T03:23:08;101322.09;;;14.38;70.84
67015;BME280;1033;52.560;13.374;2022-07-29T03:25:37;101311.59;;;14.34;70.73
67015;BME280;1033;52.560;13.374;2022-07-29T03:28:06;101312.00;;;14.38;70.91
67015;BME280;1033;52.560;13.374;2022-07-29T03:30:36;101306.78;;;14.30;70.97
67015;BME280;1033;52.560;13.374;2022-07-29T03:33:04;101309.31;;;14.31;70.80
67015;BME280;1033;52.560;13.374;2022-07-29T03:35:41;101303.03;;;14.31;71.09
67015;BME280;1033;52.560;13.374;2022-07-29T03:38:10;101307.63;;;14.37;70.63
67015;BME280;1033;52.560;13.374;2022-07-29T03:40:46;101302.13;;;14.44;70.50
67015;BME280;1033;52.560;13.374;2022-07-29T03:43:18;101292.94;;;14.38;70.48
67015;BME280;1033;52.560;13.374;2022-07-29T03:45:54;101296.69;;;14.44;70.52
67015;BME280;1033;52.560;13.374;2022-07-29T03:48:25;101292.91;;;14.51;70.11
67015;BME280;1033;52.560;13.374;2022-07-29T03:50:57;101283.63;;;14.59;70.03
67015;BME280;1033;52.560;13.374;2022-07-29T03:53:26;101291.22;;;14.82;68.96
67015;BME280;1033;52.560;13.374;2022-07-29T03:56:02;101292.16;;;14.69;69.19
67015;BME280;1033;52.560;13.374;2022-07-29T03:58:32;101286.06;;;14.67;69.34
67015;BME280;1033;52.560;13.374;2022-07-29T04:01:02;101291.78;;;14.59;69.48
67015;BME280;1033;52.560;13.374;2022-07-29T04:03:31;101290.34;;;14.56;69.81
67015;BME280;1033;52.560;13.374;2022-07-29T04:06:05;101294.34;;;14.54;69.90
67015;BME280;1033;52.560;13.374;2022-07-29T04:08:35;101293.28;;;14.55;69.99
67015;BME280;1033;52.560;13.374;2022-07-29T04:11:05;101295.53;;;14.64;69.43
67015;BME280;1033;52.560;13.374;2022-07-29T04:13:34;101305.13;;;14.67;69.48
67015;BME280;1033;52.560;13.374;2022-07-29T04:16:04;101294.25;;;14.67;69.38
67015;BME280;1033;52.560;13.374;2022-07-29T04:18:33;101307.34;;;14.83;68.93
67015;BME280;1033;52.560;13.374;2022-07-29T04:21:04;101298.13;;;14.84;68.49
67015;BME280;1033;52.560;13.374;2022-07-29T04:23:33;101306.94;;;14.86;68.46
67015;BME280;1033;52.560;13.374;2022-07-29T04:26:19;101316.59;;;15.07;68.02
67015;BME280;1033;52.560;13.374;2022-07-29T04:28:48;101316.94;;;15.17;67.30
67015;BME280;1033;52.560;13.374;2022-07-29T04:31:17;101304.00;;;15.62;66.14
67015;BME280;1033;52.560;13.374;2022-07-29T04:33:51;101306.28;;;16.20;63.76
67015;BME280;1033;52.560;13.374;2022-07-29T04:36:22;101302.78;;;16.31;62.95
67015;BME280;1033;52.560;13.374;2022-07-29T04:38:56;101308.09;;;15.89;64.35
67015;BME280;1033;52.560;13.374;2022-07-29T04:41:25;101311.19;;;15.75;64.93
67015;BME280;1033;52.560;13.374;2022-07-29T04:44:00;101307.56;;;15.81;64.60
67015;BME280;1033;52.560;13.374;2022-07-29T04:46:38;101308.31;;;15.88;64.79
67015;BME280;1033;52.560;13.374;2022-07-29T04:49:07;101310.06;;;16.19;63.75
67015;BME280;1033;52.560;13.374;2022-07-29T04:51:49;101313.56;;;16.26;63.08
67015;BME280;1033;52.560;13.374;2022-07-29T04:54:18;101314.63;;;16.06;63.78
67015;BME280;1033;52.560;13.374;2022-07-29T04:56:47;101312.81;;;16.00;64.04
67015;BME280;1033;52.560;13.374;2022-07-29T04:59:18;101317.97;;;15.90;64.51
67015;BME280;1033;52.560;13.374;2022-07-29T05:01:47;101317.75;;;15.92;64.53
67015;BME280;1033;52.560;13.374;2022-07-29T05:04:16;101310.97;;;15.94;64.56
67015;BME280;1033;52.560;13.374;2022-07-29T05:06:47;101307.19;;;15.95;64.14
67015;BME280;1033;52.560;13.374;2022-07-29T05:09:17;101300.84;;;16.01;64.44
67015;BME280;1033;52.560;13.374;2022-07-29T05:11:46;101307.78;;;16.34;63.50
67015;BME280;1033;52.560;13.374;2022-07-29T05:14:15;101308.63;;;16.94;61.49
67015;BME280;1033;52.560;13.374;2022-07-29T05:16:44;101315.81;;;17.53;59.67
67015;BME280;1033;52.560;13.374;2022-07-29T05:19:13;101314.72;;;18.12;58.12
67015;BME280;1033;52.560;13.374;2022-07-29T05:21:42;101308.06;;;18.20;56.96
67015;BME280;1033;52.560;13.374;2022-07-29T05:24:12;101301.56;;;17.86;57.93
67015;BME280;1033;52.560;13.374;2022-07-29T05:26:43;101308.28;;;18.18;57.08
67015;BME280;1033;52.560;13.374;2022-07-29T05:29:12;101304.06;;;18.39;56.16
67015;BME280;1033;52.560;13.374;2022-07-29T05:32:01;101303.75;;;18.24;56.85
67015;BME280;1033;52.560;13.374;2022-07-29T05:34:30;101301.34;;;17.64;58.10
67015;BME280;1033;52.560;13.374;2022-07-29T05:36:59;101293.00;;;17.36;58.97
67015;BME280;1033;52.560;13.374;2022-07-29T05:39:28;101300.72;;;17.27;59.58
67015;BME280;1033;52.560;13.374;2022-07-29T05:42:16;101302.50;;;17.22;59.83
67015;BME280;1033;52.560;13.374;2022-07-29T05:44:45;101296.75;;;17.12;60.11
67015;BME280;1033;52.560;13.374;2022-07-29T05:47:14;101293.69;;;17.20;60.08
67015;BME280;1033;52.560;13.374;2022-07-29T05:49:43;101287.28;;;17.26;59.98
67015;BME280;1033;52.560;13.374;2022-07-29T05:52:13;101298.88;;;17.10;60.62
67015;BME280;1033;52.560;13.374;2022-07-29T05:54:42;101294.28;;;17.22;60.06
67015;BME280;1033;52.560;13.374;2022-07-29T05:57:17;101306.53;;;17.31;59.91
67015;BME280;1033;52.560;13.374;2022-07-29T05:59:46;101300.25;;;17.42;59.92
67015;BME280;1033;52.560;13.374;2022-07-29T06:02:18;101297.97;;;17.39;59.24
67015;BME280;1033;52.560;13.374;2022-07-29T06:04:47;101305.84;;;17.47;59.28
67015;BME280;1033;52.560;13.374;2022-07-29T06:07:16;101309.91;;;17.68;58.83
67015;BME280;1033;52.560;13.374;2022-07-29T06:09:45;101305.59;;;17.84;58.33
67015;BME280;1033;52.560;13.374;2022-07-29T06:12:15;101309.25;;;18.12;57.60
67015;BME280;1033;52.560;13.374;2022-07-29T06:14:44;101312.19;;;18.34;56.84
67015;BME280;1033;52.560;13.374;2022-07-29T06:17:18;101313.78;;;18.58;56.31
67015;BME280;1033;52.560;13.374;2022-07-29T06:19:47;101308.00;;;18.72;55.91
67015;BME280;1033;52.560;13.374;2022-07-29T06:22:16;101304.88;;;18.96;55.15
67015;BME280;1033;52.560;13.374;2022-07-29T06:24:45;101301.56;;;19.28;54.43
67015;BME280;1033;52.560;13.374;2022-07-29T06:27:14;101294.00;;;19.35;53.54
67015;BME280;1033;52.560;13.374;2022-07-29T06:29:44;101288.75;;;19.33;53.88
67015;BME280;1033;52.560;13.374;2022-07-29T06:32:14;101300.56;;;19.34;53.57
67015;BME280;1033;52.560;13.374;2022-07-29T06:34:42;101295.41;;;19.37;53.21
67015;BME280;1033;52.560;13.374;2022-07-29T06:37:15;101302.16;;;19.46;53.07
67015;BME280;1033;52.560;13.374;2022-07-29T06:39:45;101302.91;;;19.59;52.93
67015;BME280;1033;52.560;13.374;2022-07-29T06:42:15;101302.75;;;19.48;52.93
67015;BME280;1033;52.560;13.374;2022-07-29T06:44:45;101300.09;;;19.53;53.02
67015;BME280;1033;52.560;13.374;2022-07-29T06:47:14;101294.59;;;19.53;52.70
67015;BME280;1033;52.560;13.374;2022-07-29T06:49:43;101303.16;;;19.40;53.15
67015;BME280;1033;52.560;13.374;2022-07-29T06:52:12;101301.47;;;19.56;52.81
67015;BME280;1033;52.560;13.374;2022-07-29T06:54:41;101304.22;;;19.56;52.73
67015;BME280;1033;52.560;13.374;2022-07-29T06:57:15;101302.38;;;19.62;52.51
67015;BME280;1033;52.560;13.374;2022-07-29T06:59:45;101307.94;;;19.67;52.58
67015;BME280;1033;52.560;13.374;2022-07-29T07:02:15;101306.03;;;19.67;52.31
67015;BME280;1033;52.560;13.374;2022-07-29T07:04:43;101313.19;;;20.07;51.52
67015;BME280;1033;52.560;13.374;2022-07-29T07:07:15;101313.94;;;20.02;51.29
67015;BME280;1033;52.560;13.374;2022-07-29T07:09:44;101315.22;;;20.16;51.33
67015;BME280;1033;52.560;13.374;2022-07-29T07:12:13;101316.66;;;20.41;50.51
67015;BME280;1033;52.560;13.374;2022-07-29T07:14:41;101299.75;;;20.54;49.75
67015;BME280;1033;52.560;13.374;2022-07-29T07:17:12;101313.59;;;20.86;48.96
67015;BME280;1033;52.560;13.374;2022-07-29T07:19:40;101316.44;;;21.22;48.69
67015;BME280;1033;52.560;13.374;2022-07-29T07:22:09;101313.25;;;21.41;47.85
67015;BME280;1033;52.560;13.374;2022-07-29T07:24:38;101313.28;;;21.46;47.83
67015;BME280;1033;52.560;13.374;2022-07-29T07:27:07;101306.66;;;21.42;47.78
67015;BME280;1033;52.560;13.374;2022-07-29T07:29:36;101306.75;;;21.52;47.93
67015;BME280;1033;52.560;13.374;2022-07-29T07:32:11;101299.06;;;21.54;47.12
67015;BME280;1033;52.560;13.374;2022-07-29T07:34:43;101307.72;;;21.36;47.74
67015;BME280;1033;52.560;13.374;2022-07-29T07:37:12;101302.34;;;21.56;47.39
67015;BME280;1033;52.560;13.374;2022-07-29T07:39:42;101317.06;;;21.72;46.89
67015;BME280;1033;52.560;13.374;2022-07-29T07:42:11;101302.53;;;21.81;47.10
67015;BME280;1033;52.560;13.374;2022-07-29T07:44:40;101306.91;;;22.29;45.66
67015;BME280;1033;52.560;13.374;2022-07-29T07:47:30;101296.75;;;22.40;45.11
67015;BME280;1033;52.560;13.374;2022-07-29T07:50:00;101302.31;;;22.50;45.18
67015;BME280;1033;52.560;13.374;2022-07-29T07:52:29;101299.28;;;22.67;44.64
67015;BME280;1033;52.560;13.374;2022-07-29T07:54:59;101296.50;;;22.51;44.65
67015;BME280;1033;52.560;13.374;2022-07-29T07:57:28;101296.22;;;22.53;44.80
67015;BME280;1033;52.560;13.374;2022-07-29T07:59:57;101291.78;;;22.47;44.29
67015;BME280;1033;52.560;13.374;2022-07-29T08:02:26;101298.19;;;22.68;43.90
67015;BME280;1033;52.560;13.374;2022-07-29T08:04:56;101299.13;;;22.99;43.47
67015;BME280;1033;52.560;13.374;2022-07-29T08:07:26;101288.06;;;23.24;42.92
67015;BME280;1033;52.560;13.374;2022-07-29T08:09:56;101290.81;;;23.44;42.33
67015;BME280;1033;52.560;13.374;2022-07-29T08:12:25;101284.19;;;23.60;41.89
67015;BME280;1033;52.560;13.374;2022-07-29T08:14:54;101289.38;;;23.82;41.15
67015;BME280;1033;52.560;13.374;2022-07-29T08:17:22;101283.59;;;23.78;40.84
67015;BME280;1033;52.560;13.374;2022-07-29T08:19:51;101294.63;;;23.83;39.96
67015;BME280;1033;52.560;13.374;2022-07-29T08:22:21;101289.13;;;23.73;40.29
67015;BME280;1033;52.560;13.374;2022-07-29T08:24:50;101278.91;;;23.74;40.10
67015;BME280;1033;52.560;13.374;2022-07-29T08:27:23;101288.59;;;23.76;40.23
67015;BME280;1033;52.560;13.374;2022-07-29T08:30:11;101279.75;;;23.64;40.02
67015;BME280;1033;52.560;13.374;2022-07-29T08:32:40;101286.34;;;23.78;40.15
67015;BME280;1033;52.560;13.374;2022-07-29T08:35:25;101275.00;;;23.90;39.67
67015;BME280;1033;52.560;13.374;2022-07-29T08:38:01;101280.13;;;24.22;38.39
67015;BME280;1033;52.560;13.374;2022-07-29T08:40:30;101274.69;;;24.56;37.80
67015;BME280;1033;52.560;13.374;2022-07-29T08:43:04;101266.47;;;24.85;37.24
67015;BME280;1033;52.560;13.374;2022-07-29T08:45:43;101268.09;;;24.96;37.17
67015;BME280;1033;52.560;13.374;2022-07-29T08:48:16;101261.91;;;25.04;36.64
67015;BME280;1033;52.560;13.374;2022-07-29T08:50:48;101267.53;;;24.94;36.95
67015;BME280;1033;52.560;13.374;2022-07-29T08:53:18;101259.81;;;24.91;36.67
67015;BME280;1033;52.560;13.374;2022-07-29T08:55:49;101274.78;;;24.90;36.13
67015;BME280;1033;52.560;13.374;2022-07-29T08:58:19;101271.47;;;24.88;36.32
67015;BME280;1033;52.560;13.374;2022-07-29T09:00:53;101264.81;;;24.89;36.51
67015;BME280;1033;52.560;13.374;2022-07-29T09:03:29;101259.81;;;24.91;36.57
67015;BME280;1033;52.560;13.374;2022-07-29T09:05:59;101260.41;;;24.88;36.08
67015;BME280;1033;52.560;13.374;2022-07-29T09:08:32;101267.03;;;24.92;36.45
67015;BME280;1033;52.560;13.374;2022-07-29T09:11:01;101270.81;;;25.01;36.27
67015;BME280;1033;52.560;13.374;2022-07-29T09:13:32;101265.28;;;25.01;35.26
67015;BME280;1033;52.560;13.374;2022-07-29T09:16:04;101271.34;;;25.03;35.33
67015;BME280;1033;52.560;13.374;2022-07-29T09:18:38;101265.38;;;25.20;35.30
67015;BME280;1033;52.560;13.374;2022-07-29T09:21:09;101268.69;;;25.56;34.92
67015;BME280;1033;52.560;13.374;2022-07-29T09:24:09;101258.31;;;25.90;34.31
67015;BME280;1033;52.560;13.374;2022-07-29T09:26:41;101259.06;;;25.95;34.20
67015;BME280;1033;52.560;13.374;2022-07-29T09:29:13;101259.19;;;26.09;34.36
67015;BME280;1033;52.560;13.374;2022-07-29T09:31:45;101263.66;;;26.29;33.54
67015;BME280;1033;52.560;13.374;2022-07-29T09:34:16;101259.94;;;25.91;33.63
67015;BME280;1033;52.560;13.374;2022-07-29T09:36:49;101259.31;;;25.75;34.07
67015;BME280;1033;52.560;13.374;2022-07-29T09:39:31;101265.03;;;25.60;33.82
67015;BME280;1033;52.560;13.374;2022-07-29T09:42:03;101263.09;;;25.61;33.78
67015;BME280;1033;52.560;13.374;2022-07-29T09:44:45;101256.63;;;25.70;33.15
67015;BME280;1033;52.560;13.374;2022-07-29T09:47:16;101253.84;;;25.94;33.05
67015;BME280;1033;52.560;13.374;2022-07-29T09:49:56;101246.69;;;25.88;32.74
67015;BME280;1033;52.560;13.374;2022-07-29T09:52:28;101254.34;;;25.96;33.12
67015;BME280;1033;52.560;13.374;2022-07-29T09:55:08;101244.19;;;26.10;32.49
67015;BME280;1033;52.560;13.374;2022-07-29T09:57:45;101239.84;;;26.04;32.82
67015;BME280;1033;52.560;13.374;2022-07-29T10:00:17;101248.91;;;25.86;32.15
67015;BME280;1033;52.560;13.374;2022-07-29T10:02:47;101239.22;;;25.65;32.79
67015;BME280;1033;52.560;13.374;2022-07-29T10:05:20;101246.63;;;25.93;33.10
67015;BME280;1033;52.560;13.374;2022-07-29T10:07:52;101254.31;;;26.20;32.42
67015;BME280;1033;52.560;13.374;2022-07-29T10:10:27;101252.44;;;26.15;32.49
67015;BME280;1033;52.560;13.374;2022-07-29T10:12:59;101245.97;;;26.44;32.28
67015;BME280;1033;52.560;13.374;2022-07-29T10:15:38;101243.34;;;26.71;31.62
67015;BME280;1033;52.560;13.374;2022-07-29T10:18:09;101244.19;;;26.53;32.10
67015;BME280;1033;52.560;13.374;2022-07-29T10:20:39;101242.22;;;26.53;32.35
67015;BME280;1033;52.560;13.374;2022-07-29T10:23:09;101237.03;;;26.84;31.62
67015;BME280;1033;52.560;13.374;2022-07-29T10:25:40;101218.38;;;26.71;31.58
67015;BME280;1033;52.560;13.374;2022-07-29T10:28:13;101233.38;;;26.51;31.73
67015;BME280;1033;52.560;13.374;2022-07-29T10:30:45;101233.81;;;26.39;31.42
67015;BME280;1033;52.560;13.374;2022-07-29T10:33:32;101236.66;;;26.53;30.89
67015;BME280;1033;52.560;13.374;2022-07-29T10:36:35;101226.53;;;26.44;30.96
67015;BME280;1033;52.560;13.374;2022-07-29T10:39:25;101224.75;;;26.53;31.35
67015;BME280;1033;52.560;13.374;2022-07-29T10:42:18;101231.25;;;26.80;30.93
67015;BME280;1033;52.560;13.374;2022-07-29T10:45:00;101223.63;;;26.54;30.97
67015;BME280;1033;52.560;13.374;2022-07-29T10:47:31;101230.47;;;26.43;31.24
67015;BME280;1033;52.560;13.374;2022-07-29T10:50:03;101229.25;;;26.67;30.78
67015;BME280;1033;52.560;13.374;2022-07-29T10:52:53;101225.78;;;26.94;29.66
67015;BME280;1033;52.560;13.374;2022-07-29T10:55:34;101234.31;;;26.79;30.13
67015;BME280;1033;52.560;13.374;2022-07-29T10:58:19;101233.41;;;27.02;30.36
67015;BME280;1033;52.560;13.374;2022-07-29T11:00:51;101224.25;;;27.34;30.22
67015;BME280;1033;52.560;13.374;2022-07-29T11:03:45;101226.13;;;27.52;30.18
67015;BME280;1033;52.560;13.374;2022-07-29T11:06:19;101223.25;;;27.71;29.18
67015;BME280;1033;52.560;13.374;2022-07-29T11:09:18;101227.59;;;27.77;29.57
67015;BME280;1033;52.560;13.374;2022-07-29T11:15:14;101223.69;;;27.78;29.91
67015;BME280;1033;52.560;13.374;2022-07-29T11:18:09;101216.47;;;27.63;29.77
67015;BME280;1033;52.560;13.374;2022-07-29T11:20:45;101214.06;;;26.97;30.76
67015;BME280;1033;52.560;13.374;2022-07-29T11:23:25;101220.69;;;27.01;30.53
67015;BME280;1033;52.560;13.374;2022-07-29T11:26:18;101208.56;;;27.11;30.51
67015;BME280;1033;52.560;13.374;2022-07-29T11:28:59;101213.28;;;27.70;30.21
67015;BME280;1033;52.560;13.374;2022-07-29T11:31:38;101211.63;;;27.96;29.46
67015;BME280;1033;52.560;13.374;2022-07-29T11:34:23;101206.44;;;28.03;29.69
67015;BME280;1033;52.560;13.374;2022-07-29T11:37:22;101211.69;;;28.19;29.68
67015;BME280;1033;52.560;13.374;2022-07-29T11:40:15;101203.88;;;28.21;29.82
67015;BME280;1033;52.560;13.374;2022-07-29T11:42:51;101211.63;;;27.96;29.91
67015;BME280;1033;52.560;13.374;2022-07-29T11:45:46;101206.09;;;27.69;30.71
67015;BME280;1033;52.560;13.374;2022-07-29T11:48:18;101199.34;;;27.84;30.68
67015;BME280;1033;52.560;13.374;2022-07-29T11:50:57;101197.69;;;28.24;30.52
67015;BME280;1033;52.560;13.374;2022-07-29T11:53:26;101186.59;;;28.46;30.10
67015;BME280;1033;52.560;13.374;2022-07-29T11:56:21;101183.94;;;28.63;29.92
67015;BME280;1033;52.560;13.374;2022-07-29T11:59:03;101189.06;;;28.12;30.47
67015;BME280;1033;52.560;13.374;2022-07-29T12:01:34;101188.34;;;27.92;31.28
67015;BME280;1033;52.560;13.374;2022-07-29T12:04:06;101173.63;;;27.78;31.22
67015;BME280;1033;52.560;13.374;2022-07-29T12:06:35;101184.53;;;27.75;31.69
67015;BME280;1033;52.560;13.374;2022-07-29T12:09:07;101190.09;;;28.02;31.40
67015;BME280;1033;52.560;13.374;2022-07-29T12:11:40;101185.72;;;28.23;30.99
67015;BME280;1033;52.560;13.374;2022-07-29T12:14:27;101178.66;;;28.17;31.34
67015;BME280;1033;52.560;13.374;2022-07-29T12:16:57;101178.84;;;28.21;31.50
67015;BME280;1033;52.560;13.374;2022-07-29T12:19:27;101178.13;;;28.01;31.80
67015;BME280;1033;52.560;13.374;2022-07-29T12:21:57;101170.13;;;27.86;32.47
67015;BME280;1033;52.560;13.374;2022-07-29T12:24:43;101165.03;;;28.16;32.37
67015;BME280;1033;52.560;13.374;2022-07-29T12:27:17;101162.28;;;28.38;31.75
67015;BME280;1033;52.560;13.374;2022-07-29T12:29:56;101154.94;;;28.42;31.89
67015;BME280;1033;52.560;13.374;2022-07-29T12:32:33;101160.78;;;28.32;32.66
67015;BME280;1033;52.560;13.374;2022-07-29T12:35:07;101159.34;;;28.21;32.94
67015;BME280;1033;52.560;13.374;2022-07-29T12:37:39;101159.56;;;28.10;33.68
67015;BME280;1033;52.560;13.374;2022-07-29T12:40:11;101153.34;;;28.27;33.22
67015;BME280;1033;52.560;13.374;2022-07-29T12:42:41;101154.03;;;28.33;33.08
67015;BME280;1033;52.560;13.374;2022-07-29T12:45:10;101147.41;;;28.06;34.13
67015;BME280;1033;52.560;13.374;2022-07-29T12:47:51;101148.59;;;28.28;34.36
67015;BME280;1033;52.560;13.374;2022-07-29T12:50:22;101145.47;;;28.65;33.22
67015;BME280;1033;52.560;13.374;2022-07-29T12:52:52;101133.81;;;28.85;32.44
67015;BME280;1033;52.560;13.374;2022-07-29T12:55:44;101141.41;;;28.49;32.98
67015;BME280;1033;52.560;13.374;2022-07-29T12:58:27;101139.53;;;28.80;32.49
67015;BME280;1033;52.560;13.374;2022-07-29T13:01:09;101149.84;;;28.80;32.26
67015;BME280;1033;52.560;13.374;2022-07-29T13:03:52;101142.41;;;28.98;32.37
67015;BME280;1033;52.560;13.374;2022-07-29T13:06:48;101140.66;;;28.57;32.72
67015;BME280;1033;52.560;13.374;2022-07-29T13:09:19;101147.47;;;28.29;33.73
67015;BME280;1033;52.560;13.374;2022-07-29T13:11:52;101141.00;;;28.20;33.28
67015;BME280;1033;52.560;13.374;2022-07-29T13:14:32;101132.97;;;28.04;33.65
67015;BME280;1033;52.560;13.374;2022-07-29T13:17:04;101125.63;;;27.86;33.92
67015;BME280;1033;52.560;13.374;2022-07-29T13:19:36;101122.47;;;28.15;34.02
67015;BME280;1033;52.560;13.374;2022-07-29T13:22:08;101117.56;;;28.34;33.37
67015;BME280;1033;52.560;13.374;2022-07-29T13:24:50;101114.84;;;28.65;33.27
67015;BME280;1033;52.560;13.374;2022-07-29T13:27:21;101115.66;;;28.66;33.06
67015;BME280;1033;52.560;13.374;2022-07-29T13:29:50;101119.75;;;28.68;32.30